sensor_id;sensor_type;location;lat;lon;timestamp;pressure;altitude;pressure_sealevel;temperature;humidity
28027;BME280;15344;52.342;-1.290;2023-02-28T00:00:16;102009.95;;;6.51;100.00
28027;BME280;15344;52.342;-1.290;2023-02-28T00:02:43;102005.68;;;7.99;98.00
28027;BME280;15344;52.342;-1.290;2023-02-28T00:05:08;102011.50;;;6.40;100.00
28027;BME280;15344;52.342;-1.290;2023-02-28T00:07:32;102012.37;;;8.19;97.03
28027;BME280;15344;52.342;-1.290;2023-02-28T00:09:58;102013.02;;;7.68;99.52
28027;BME280;15344;52.342;-1.290;2023-02-28T00:12:23;102013.91;;;6.92;100.00
28027;BME280;15344;52.342;-1.290;2023-02-28T00:14:49;102019.69;;;7.10;100.00
28027;BME280;15344;52.342;-1.290;2023-02-28T00:17:15;102022.55;;;7.50;99.92
28027;BME280;15344;52.342;-1.290;2023-02-28T00:19:40;102022.78;;;7.07;100.00
28027;BME280;15344;52.342;-1.290;2023-02-28T00:22:06;102026.12;;;7.30;99.61
28027;BME280;15344;52.342;-1.290;2023-02-28T00:24:31;102024.06;;;7.43;99.92
28027;BME280;15344;52.342;-1.290;2023-02-28T00:26:57;102025.42;;;7.13;100.00
28027;BME280;15344;52.342;-1.290;2023-02-28T00:29:22;102029.17;;;7.19;100.00
28027;BME280;15344;52.342;-1.290;2023-02-28T00:31:47;102021.84;;;8.39;95.34
28027;BME280;15344;52.342;-1.290;2023-02-28T00:34:13;102017.75;;;8.86;92.54
28027;BME280;15344;52.342;-1.290;2023-02-28T00:36:38;102024.98;;;7.79;96.59
28027;BME280;15344;52.342;-1.290;2023-02-28T00:39:04;102028.06;;;7.59;98.68
28027;BME280;15344;52.342;-1.290;2023-02-28T00:41:30;102027.45;;;8.31;93.66
28027;BME280;15344;52.342;-1.290;2023-02-28T00:43:55;102021.73;;;8.52;94.43
28027;BME280;15344;52.342;-1.290;2023-02-28T00:46:21;102018.69;;;8.81;90.90
28027;BME280;15344;52.342;-1.290;2023-02-28T00:48:46;102018.72;;;8.81;89.85
28027;BME280;15344;52.342;-1.290;2023-02-28T00:51:12;102022.89;;;8.81;88.94
28027;BME280;15344;52.342;-1.290;2023-02-28T00:53:37;102028.15;;;9.54;86.05
28027;BME280;15344;52.342;-1.290;2023-02-28T00:56:03;102034.03;;;8.19;91.10
28027;BME280;15344;52.342;-1.290;2023-02-28T00:58:28;102032.60;;;9.74;85.75
28027;BME280;15344;52.342;-1.290;2023-02-28T01:00:54;102031.20;;;9.92;85.43
28027;BME280;15344;52.342;-1.290;2023-02-28T01:03:21;102032.87;;;9.67;86.59
28027;BME280;15344;52.342;-1.290;2023-02-28T01:05:46;102036.11;;;10.02;86.45
28027;BME280;15344;52.342;-1.290;2023-02-28T01:08:11;102037.41;;;9.76;86.62
28027;BME280;15344;52.342;-1.290;2023-02-28T01:10:36;102037.71;;;9.43;87.39
28027;BME280;15344;52.342;-1.290;2023-02-28T01:13:02;102037.34;;;10.13;85.70
28027;BME280;15344;52.342;-1.290;2023-02-28T01:15:27;102038.98;;;8.03;96.12
28027;BME280;15344;52.342;-1.290;2023-02-28T01:17:52;102038.43;;;8.04;95.46
28027;BME280;15344;52.342;-1.290;2023-02-28T01:20:18;102039.44;;;9.91;87.54
28027;BME280;15344;52.342;-1.290;2023-02-28T01:22:43;102045.79;;;10.10;87.09
28027;BME280;15344;52.342;-1.290;2023-02-28T01:25:08;102043.15;;;10.24;85.49
28027;BME280;15344;52.342;-1.290;2023-02-28T01:27:34;102046.01;;;9.89;88.66
28027;BME280;15344;52.342;-1.290;2023-02-28T01:29:59;102049.31;;;10.20;87.04
28027;BME280;15344;52.342;-1.290;2023-02-28T01:32:25;102049.77;;;10.02;86.26
28027;BME280;15344;52.342;-1.290;2023-02-28T01:34:50;102046.51;;;9.01;91.42
28027;BME280;15344;52.342;-1.290;2023-02-28T01:37:16;102040.65;;;10.49;86.17
28027;BME280;15344;52.342;-1.290;2023-02-28T01:39:41;102042.47;;;9.44;89.35
28027;BME280;15344;52.342;-1.290;2023-02-28T01:42:08;102045.75;;;10.28;88.51
28027;BME280;15344;52.342;-1.290;2023-02-28T01:46:58;102048.53;;;9.64;91.13
28027;BME280;15344;52.342;-1.290;2023-02-28T01:49:24;102050.32;;;8.01;97.84
28027;BME280;15344;52.342;-1.290;2023-02-28T01:51:50;102044.55;;;10.05;91.83
28027;BME280;15344;52.342;-1.290;2023-02-28T01:54:16;102043.82;;;10.39;89.73
28027;BME280;15344;52.342;-1.290;2023-02-28T01:56:45;102039.53;;;9.18;95.58
28027;BME280;15344;52.342;-1.290;2023-02-28T01:59:05;102042.30;;;10.01;90.83
28027;BME280;15344;52.342;-1.290;2023-02-28T02:01:30;102045.81;;;10.14;91.26
28027;BME280;15344;52.342;-1.290;2023-02-28T02:03:59;102041.51;;;10.21;89.04
28027;BME280;15344;52.342;-1.290;2023-02-28T02:06:22;102035.61;;;10.76;88.29
28027;BME280;15344;52.342;-1.290;2023-02-28T02:08:46;102040.15;;;8.39;97.47
28027;BME280;15344;52.342;-1.290;2023-02-28T02:11:12;102040.32;;;9.94;92.59
28027;BME280;15344;52.342;-1.290;2023-02-28T02:13:48;102035.80;;;10.31;90.74
28027;BME280;15344;52.342;-1.290;2023-02-28T02:16:13;102041.67;;;9.77;93.10
28027;BME280;15344;52.342;-1.290;2023-02-28T02:18:32;102044.54;;;9.41;93.32
28027;BME280;15344;52.342;-1.290;2023-02-28T02:23:33;102041.36;;;10.25;91.52
28027;BME280;15344;52.342;-1.290;2023-02-28T02:25:47;102048.30;;;9.79;94.04
28027;BME280;15344;52.342;-1.290;2023-02-28T02:35:27;102042.34;;;10.12;92.18
28027;BME280;15344;52.342;-1.290;2023-02-28T02:37:52;102034.93;;;8.97;94.86
28027;BME280;15344;52.342;-1.290;2023-02-28T02:40:18;102035.66;;;9.65;94.46
28027;BME280;15344;52.342;-1.290;2023-02-28T02:42:49;102032.27;;;9.60;94.80
28027;BME280;15344;52.342;-1.290;2023-02-28T02:45:10;102030.44;;;9.50;97.34
28027;BME280;15344;52.342;-1.290;2023-02-28T02:47:33;102030.07;;;9.73;94.34
28027;BME280;15344;52.342;-1.290;2023-02-28T02:50:01;102022.74;;;8.99;97.00
28027;BME280;15344;52.342;-1.290;2023-02-28T02:52:28;102024.31;;;10.00;93.64
28027;BME280;15344;52.342;-1.290;2023-02-28T02:54:52;102021.88;;;9.41;93.41
28027;BME280;15344;52.342;-1.290;2023-02-28T02:57:20;102020.00;;;10.24;91.14
28027;BME280;15344;52.342;-1.290;2023-02-28T02:59:41;102017.98;;;9.93;92.03
28027;BME280;15344;52.342;-1.290;2023-02-28T03:02:08;102016.34;;;9.19;95.55
28027;BME280;15344;52.342;-1.290;2023-02-28T03:04:33;102017.41;;;9.94;91.80
28027;BME280;15344;52.342;-1.290;2023-02-28T03:06:56;102018.15;;;8.81;97.16
28027;BME280;15344;52.342;-1.290;2023-02-28T03:09:21;102013.87;;;9.67;94.30
28027;BME280;15344;52.342;-1.290;2023-02-28T03:11:48;102016.36;;;9.81;91.91
28027;BME280;15344;52.342;-1.290;2023-02-28T03:14:22;102014.73;;;10.56;88.60
28027;BME280;15344;52.342;-1.290;2023-02-28T03:16:49;102013.53;;;10.13;90.84
28027;BME280;15344;52.342;-1.290;2023-02-28T03:19:11;102009.55;;;10.75;87.27
28027;BME280;15344;52.342;-1.290;2023-02-28T03:21:34;102013.27;;;9.29;92.85
28027;BME280;15344;52.342;-1.290;2023-02-28T03:24:00;102014.55;;;8.57;98.16
28027;BME280;15344;52.342;-1.290;2023-02-28T03:26:22;102015.13;;;9.95;90.32
28027;BME280;15344;52.342;-1.290;2023-02-28T03:28:52;102013.82;;;9.92;90.97
28027;BME280;15344;52.342;-1.290;2023-02-28T03:31:14;102018.81;;;10.05;90.35
28027;BME280;15344;52.342;-1.290;2023-02-28T03:33:39;102019.97;;;9.89;90.99
28027;BME280;15344;52.342;-1.290;2023-02-28T03:36:11;102023.29;;;9.76;93.40
28027;BME280;15344;52.342;-1.290;2023-02-28T03:38:31;102023.64;;;9.80;91.27
28027;BME280;15344;52.342;-1.290;2023-02-28T03:40:57;102027.16;;;10.42;88.84
28027;BME280;15344;52.342;-1.290;2023-02-28T03:43:23;102027.39;;;9.87;89.75
28027;BME280;15344;52.342;-1.290;2023-02-28T03:45:43;102029.70;;;10.27;89.03
28027;BME280;15344;52.342;-1.290;2023-02-28T03:48:13;102023.18;;;9.35;94.74
28027;BME280;15344;52.342;-1.290;2023-02-28T03:50:37;102019.83;;;9.78;92.38
28027;BME280;15344;52.342;-1.290;2023-02-28T03:53:02;102017.93;;;8.89;94.94
28027;BME280;15344;52.342;-1.290;2023-02-28T03:55:24;102025.83;;;8.68;96.10
28027;BME280;15344;52.342;-1.290;2023-02-28T03:57:56;102025.71;;;9.02;96.44
28027;BME280;15344;52.342;-1.290;2023-02-28T04:00:19;102024.86;;;9.50;93.61
28027;BME280;15344;52.342;-1.290;2023-02-28T04:02:40;102023.83;;;9.20;96.51
28027;BME280;15344;52.342;-1.290;2023-02-28T04:05:07;102029.94;;;7.35;100.00
28027;BME280;15344;52.342;-1.290;2023-02-28T04:07:32;102030.10;;;8.83;99.62
28027;BME280;15344;52.342;-1.290;2023-02-28T04:09:58;102030.51;;;7.68;100.00
28027;BME280;15344;52.342;-1.290;2023-02-28T04:12:22;102026.78;;;8.04;100.00
28027;BME280;15344;52.342;-1.290;2023-02-28T04:14:48;102026.06;;;7.40;100.00
28027;BME280;15344;52.342;-1.290;2023-02-28T04:17:13;102023.74;;;9.07;97.81
28027;BME280;15344;52.342;-1.290;2023-02-28T04:19:39;102023.65;;;8.93;98.30
28027;BME280;15344;52.342;-1.290;2023-02-28T04:22:04;102020.07;;;9.16;95.18
28027;BME280;15344;52.342;-1.290;2023-02-28T04:24:29;102023.04;;;8.71;98.39
28027;BME280;15344;52.342;-1.290;2023-02-28T04:26:57;102027.65;;;9.48;94.85
28027;BME280;15344;52.342;-1.290;2023-02-28T04:29:22;102027.09;;;9.79;93.41
28027;BME280;15344;52.342;-1.290;2023-02-28T04:31:46;102023.98;;;8.64;100.00
28027;BME280;15344;52.342;-1.290;2023-02-28T04:34:12;102025.52;;;8.42;100.00
28027;BME280;15344;52.342;-1.290;2023-02-28T04:36:37;102021.17;;;9.01;98.90
28027;BME280;15344;52.342;-1.290;2023-02-28T04:39:03;102019.93;;;9.56;95.06
28027;BME280;15344;52.342;-1.290;2023-02-28T04:41:28;102021.38;;;8.28;100.00
28027;BME280;15344;52.342;-1.290;2023-02-28T04:43:53;102024.71;;;7.27;100.00
28027;BME280;15344;52.342;-1.290;2023-02-28T04:46:19;102023.29;;;8.08;100.00
28027;BME280;15344;52.342;-1.290;2023-02-28T04:48:45;102029.48;;;7.89;100.00
28027;BME280;15344;52.342;-1.290;2023-02-28T04:51:12;102025.68;;;9.16;98.94
28027;BME280;15344;52.342;-1.290;2023-02-28T04:53:36;102028.49;;;8.34;100.00
28027;BME280;15344;52.342;-1.290;2023-02-28T04:56:00;102025.49;;;8.25;100.00
28027;BME280;15344;52.342;-1.290;2023-02-28T04:58:25;102032.34;;;7.66;100.00
28027;BME280;15344;52.342;-1.290;2023-02-28T05:00:52;102032.86;;;7.03;100.00
28027;BME280;15344;52.342;-1.290;2023-02-28T05:03:17;102031.85;;;6.61;100.00
28027;BME280;15344;52.342;-1.290;2023-02-28T05:05:42;102034.57;;;7.13;100.00
28027;BME280;15344;52.342;-1.290;2023-02-28T05:08:08;102038.53;;;7.65;100.00
28027;BME280;15344;52.342;-1.290;2023-02-28T05:10:34;102044.59;;;7.50;100.00
28027;BME280;15344;52.342;-1.290;2023-02-28T05:12:59;102044.87;;;6.81;100.00
28027;BME280;15344;52.342;-1.290;2023-02-28T05:15:25;102044.79;;;7.17;100.00
28027;BME280;15344;52.342;-1.290;2023-02-28T05:17:50;102040.60;;;6.91;100.00
28027;BME280;15344;52.342;-1.290;2023-02-28T05:20:15;102040.44;;;6.28;100.00
28027;BME280;15344;52.342;-1.290;2023-02-28T05:22:41;102039.53;;;6.00;100.00
28027;BME280;15344;52.342;-1.290;2023-02-28T05:25:06;102034.43;;;6.48;100.00
28027;BME280;15344;52.342;-1.290;2023-02-28T05:27:32;102035.38;;;6.44;100.00
28027;BME280;15344;52.342;-1.290;2023-02-28T05:29:57;102042.15;;;7.51;100.00
28027;BME280;15344;52.342;-1.290;2023-02-28T05:32:22;102046.84;;;7.63;100.00
28027;BME280;15344;52.342;-1.290;2023-02-28T05:34:47;102046.83;;;8.61;100.00
28027;BME280;15344;52.342;-1.290;2023-02-28T05:37:13;102046.13;;;8.16;100.00
28027;BME280;15344;52.342;-1.290;2023-02-28T05:39:38;102044.98;;;8.69;97.88
28027;BME280;15344;52.342;-1.290;2023-02-28T05:42:04;102057.84;;;7.95;100.00
28027;BME280;15344;52.342;-1.290;2023-02-28T05:44:29;102056.07;;;8.35;100.00
28027;BME280;15344;52.342;-1.290;2023-02-28T05:46:55;102058.03;;;6.18;100.00
28027;BME280;15344;52.342;-1.290;2023-02-28T05:49:20;102060.24;;;7.96;100.00
28027;BME280;15344;52.342;-1.290;2023-02-28T05:51:47;102060.15;;;8.22;99.44
28027;BME280;15344;52.342;-1.290;2023-02-28T05:54:11;102059.46;;;7.10;100.00
28027;BME280;15344;52.342;-1.290;2023-02-28T05:56:36;102065.20;;;7.17;100.00
28027;BME280;15344;52.342;-1.290;2023-02-28T05:59:02;102060.06;;;6.37;100.00
28027;BME280;15344;52.342;-1.290;2023-02-28T06:01:33;102073.07;;;5.77;100.00
28027;BME280;15344;52.342;-1.290;2023-02-28T06:03:53;102070.30;;;7.06;100.00
28027;BME280;15344;52.342;-1.290;2023-02-28T06:06:19;102073.56;;;7.14;100.00
28027;BME280;15344;52.342;-1.290;2023-02-28T06:08:45;102072.36;;;6.19;100.00
28027;BME280;15344;52.342;-1.290;2023-02-28T06:11:10;102070.41;;;6.57;100.00
28027;BME280;15344;52.342;-1.290;2023-02-28T06:13:35;102070.31;;;6.69;100.00
28027;BME280;15344;52.342;-1.290;2023-02-28T06:16:01;102071.54;;;7.45;100.00
28027;BME280;15344;52.342;-1.290;2023-02-28T06:18:26;102076.04;;;7.71;100.00
28027;BME280;15344;52.342;-1.290;2023-02-28T06:20:53;102070.96;;;8.95;96.96
28027;BME280;15344;52.342;-1.290;2023-02-28T06:23:17;102074.64;;;8.41;96.95
28027;BME280;15344;52.342;-1.290;2023-02-28T06:25:45;102076.66;;;7.65;100.00
28027;BME280;15344;52.342;-1.290;2023-02-28T06:28:08;102079.30;;;8.15;100.00
28027;BME280;15344;52.342;-1.290;2023-02-28T06:30:34;102081.97;;;8.33;100.00
28027;BME280;15344;52.342;-1.290;2023-02-28T06:32:59;102078.04;;;7.89;100.00
28027;BME280;15344;52.342;-1.290;2023-02-28T06:35:25;102079.92;;;8.05;99.19
28027;BME280;15344;52.342;-1.290;2023-02-28T06:37:50;102074.78;;;6.20;100.00
28027;BME280;15344;52.342;-1.290;2023-02-28T06:40:16;102075.14;;;8.53;98.37
28027;BME280;15344;52.342;-1.290;2023-02-28T06:42:41;102073.28;;;7.68;100.00
28027;BME280;15344;52.342;-1.290;2023-02-28T06:45:08;102076.96;;;7.11;100.00
28027;BME280;15344;52.342;-1.290;2023-02-28T06:47:32;102077.25;;;7.49;100.00
28027;BME280;15344;52.342;-1.290;2023-02-28T06:49:58;102074.50;;;7.37;100.00
28027;BME280;15344;52.342;-1.290;2023-02-28T06:52:23;102065.65;;;7.24;100.00
28027;BME280;15344;52.342;-1.290;2023-02-28T06:54:49;102067.72;;;7.58;100.00
28027;BME280;15344;52.342;-1.290;2023-02-28T06:57:14;102057.16;;;9.46;94.51
28027;BME280;15344;52.342;-1.290;2023-02-28T06:59:39;102055.59;;;9.12;94.63
28027;BME280;15344;52.342;-1.290;2023-02-28T07:02:05;102057.64;;;9.67;91.32
28027;BME280;15344;52.342;-1.290;2023-02-28T07:04:31;102060.92;;;8.68;93.82
28027;BME280;15344;52.342;-1.290;2023-02-28T07:06:56;102063.88;;;8.73;95.40
28027;BME280;15344;52.342;-1.290;2023-02-28T07:09:22;102069.92;;;8.96;95.54
28027;BME280;15344;52.342;-1.290;2023-02-28T07:11:47;102072.85;;;8.38;95.30
28027;BME280;15344;52.342;-1.290;2023-02-28T07:14:13;102078.18;;;8.79;94.59
28027;BME280;15344;52.342;-1.290;2023-02-28T07:16:38;102078.76;;;9.72;92.13
28027;BME280;15344;52.342;-1.290;2023-02-28T07:19:04;102079.15;;;9.33;91.75
28027;BME280;15344;52.342;-1.290;2023-02-28T07:21:29;102079.55;;;9.55;91.37
28027;BME280;15344;52.342;-1.290;2023-02-28T07:23:56;102086.11;;;7.84;100.00
28027;BME280;15344;52.342;-1.290;2023-02-28T07:26:20;102089.23;;;8.12;97.59
28027;BME280;15344;52.342;-1.290;2023-02-28T07:28:47;102090.29;;;8.69;95.64
28027;BME280;15344;52.342;-1.290;2023-02-28T07:31:12;102092.51;;;8.45;97.48
28027;BME280;15344;52.342;-1.290;2023-02-28T07:33:37;102093.77;;;7.93;99.65
28027;BME280;15344;52.342;-1.290;2023-02-28T07:36:04;102095.14;;;7.52;100.00
28027;BME280;15344;52.342;-1.290;2023-02-28T07:38:27;102091.65;;;7.30;100.00
28027;BME280;15344;52.342;-1.290;2023-02-28T07:40:53;102086.88;;;8.51;100.00
28027;BME280;15344;52.342;-1.290;2023-02-28T07:43:18;102088.11;;;8.74;100.00
28027;BME280;15344;52.342;-1.290;2023-02-28T07:45:44;102090.73;;;8.93;100.00
28027;BME280;15344;52.342;-1.290;2023-02-28T07:48:09;102092.06;;;9.57;96.06
28027;BME280;15344;52.342;-1.290;2023-02-28T07:50:35;102093.50;;;9.04;98.90
28027;BME280;15344;52.342;-1.290;2023-02-28T07:53:00;102101.35;;;9.06;98.40
28027;BME280;15344;52.342;-1.290;2023-02-28T07:55:26;102110.82;;;8.24;100.00
28027;BME280;15344;52.342;-1.290;2023-02-28T07:57:51;102104.93;;;9.71;95.68
28027;BME280;15344;52.342;-1.290;2023-02-28T08:00:18;102113.21;;;7.79;100.00
28027;BME280;15344;52.342;-1.290;2023-02-28T08:02:42;102110.33;;;7.36;100.00
28027;BME280;15344;52.342;-1.290;2023-02-28T08:05:08;102103.21;;;9.09;100.00
28027;BME280;15344;52.342;-1.290;2023-02-28T08:07:34;102114.30;;;8.17;100.00
28027;BME280;15344;52.342;-1.290;2023-02-28T08:09:59;102113.11;;;8.15;100.00
28027;BME280;15344;52.342;-1.290;2023-02-28T08:12:24;102107.28;;;6.35;100.00
28027;BME280;15344;52.342;-1.290;2023-02-28T08:14:49;102103.57;;;6.93;100.00
28027;BME280;15344;52.342;-1.290;2023-02-28T08:17:15;102109.47;;;7.92;100.00
28027;BME280;15344;52.342;-1.290;2023-02-28T08:19:40;102105.40;;;6.74;100.00
28027;BME280;15344;52.342;-1.290;2023-02-28T08:22:06;102105.13;;;7.55;100.00
28027;BME280;15344;52.342;-1.290;2023-02-28T08:24:32;102103.86;;;7.11;100.00
28027;BME280;15344;52.342;-1.290;2023-02-28T08:26:57;102107.39;;;7.17;100.00
28027;BME280;15344;52.342;-1.290;2023-02-28T08:29:23;102105.09;;;8.03;100.00
28027;BME280;15344;52.342;-1.290;2023-02-28T08:31:47;102107.05;;;7.89;100.00
28027;BME280;15344;52.342;-1.290;2023-02-28T08:34:14;102106.96;;;6.34;100.00
28027;BME280;15344;52.342;-1.290;2023-02-28T08:36:39;102098.40;;;6.81;100.00
28027;BME280;15344;52.342;-1.290;2023-02-28T08:39:04;102094.86;;;6.93;100.00
28027;BME280;15344;52.342;-1.290;2023-02-28T08:41:29;102098.27;;;7.43;100.00
28027;BME280;15344;52.342;-1.290;2023-02-28T08:43:54;102098.56;;;8.00;100.00
28027;BME280;15344;52.342;-1.290;2023-02-28T08:46:20;102097.44;;;8.07;100.00
28027;BME280;15344;52.342;-1.290;2023-02-28T08:48:45;102099.41;;;7.95;100.00
28027;BME280;15344;52.342;-1.290;2023-02-28T08:51:12;102100.23;;;7.42;100.00
28027;BME280;15344;52.342;-1.290;2023-02-28T08:53:36;102096.87;;;7.59;100.00
28027;BME280;15344;52.342;-1.290;2023-02-28T08:56:04;102101.81;;;7.57;100.00
28027;BME280;15344;52.342;-1.290;2023-02-28T08:58:27;102102.18;;;7.43;100.00
28027;BME280;15344;52.342;-1.290;2023-02-28T09:00:52;102099.83;;;8.46;100.00
28027;BME280;15344;52.342;-1.290;2023-02-28T09:03:18;102098.05;;;7.38;100.00
28027;BME280;15344;52.342;-1.290;2023-02-28T09:05:52;102100.18;;;7.95;100.00
28027;BME280;15344;52.342;-1.290;2023-02-28T09:08:08;102097.67;;;7.05;100.00
28027;BME280;15344;52.342;-1.290;2023-02-28T09:10:35;102096.62;;;6.72;100.00
28027;BME280;15344;52.342;-1.290;2023-02-28T09:12:59;102096.49;;;7.28;100.00
28027;BME280;15344;52.342;-1.290;2023-02-28T09:15:25;102097.12;;;7.52;100.00
28027;BME280;15344;52.342;-1.290;2023-02-28T09:17:50;102093.20;;;6.58;100.00
28027;BME280;15344;52.342;-1.290;2023-02-28T09:20:16;102092.31;;;6.88;100.00
28027;BME280;15344;52.342;-1.290;2023-02-28T09:22:41;102093.81;;;8.46;100.00
28027;BME280;15344;52.342;-1.290;2023-02-28T09:25:07;102096.37;;;8.42;100.00
28027;BME280;15344;52.342;-1.290;2023-02-28T09:27:32;102095.84;;;8.20;100.00
28027;BME280;15344;52.342;-1.290;2023-02-28T09:29:57;102097.20;;;8.44;100.00
28027;BME280;15344;52.342;-1.290;2023-02-28T09:32:23;102095.14;;;7.76;100.00
28027;BME280;15344;52.342;-1.290;2023-02-28T09:34:49;102090.57;;;8.67;100.00
28027;BME280;15344;52.342;-1.290;2023-02-28T09:37:14;102093.31;;;7.84;100.00
28027;BME280;15344;52.342;-1.290;2023-02-28T09:39:39;102091.52;;;8.90;100.00
28027;BME280;15344;52.342;-1.290;2023-02-28T09:42:05;102093.73;;;8.15;100.00
28027;BME280;15344;52.342;-1.290;2023-02-28T09:44:34;102092.34;;;8.66;100.00
28027;BME280;15344;52.342;-1.290;2023-02-28T09:46:57;102098.26;;;8.08;100.00
28027;BME280;15344;52.342;-1.290;2023-02-28T09:49:25;102100.04;;;7.62;100.00
28027;BME280;15344;52.342;-1.290;2023-02-28T09:51:50;102094.98;;;6.76;100.00
28027;BME280;15344;52.342;-1.290;2023-02-28T09:54:14;102098.39;;;6.64;100.00
28027;BME280;15344;52.342;-1.290;2023-02-28T09:56:39;102095.97;;;6.76;100.00
28027;BME280;15344;52.342;-1.290;2023-02-28T09:59:06;102094.85;;;7.57;100.00
28027;BME280;15344;52.342;-1.290;2023-02-28T10:01:34;102093.49;;;8.02;100.00
28027;BME280;15344;52.342;-1.290;2023-02-28T10:03:57;102092.11;;;8.12;100.00
28027;BME280;15344;52.342;-1.290;2023-02-28T10:06:19;102090.15;;;7.43;100.00
28027;BME280;15344;52.342;-1.290;2023-02-28T10:08:50;102089.48;;;8.51;100.00
28027;BME280;15344;52.342;-1.290;2023-02-28T10:11:12;102095.86;;;8.15;100.00
28027;BME280;15344;52.342;-1.290;2023-02-28T10:13:38;102097.91;;;8.01;100.00
28027;BME280;15344;52.342;-1.290;2023-02-28T10:16:05;102094.24;;;6.95;100.00
28027;BME280;15344;52.342;-1.290;2023-02-28T10:18:34;102092.13;;;7.49;100.00
28027;BME280;15344;52.342;-1.290;2023-02-28T10:20:53;102094.19;;;7.84;100.00
28027;BME280;15344;52.342;-1.290;2023-02-28T10:23:21;102096.80;;;7.68;100.00
28027;BME280;15344;52.342;-1.290;2023-02-28T10:25:47;102095.58;;;6.14;100.00
28027;BME280;15344;52.342;-1.290;2023-02-28T10:28:11;102098.43;;;5.81;100.00
28027;BME280;15344;52.342;-1.290;2023-02-28T10:30:36;102104.38;;;6.92;100.00
28027;BME280;15344;52.342;-1.290;2023-02-28T10:33:00;102096.91;;;5.82;100.00
28027;BME280;15344;52.342;-1.290;2023-02-28T10:35:26;102096.20;;;6.29;100.00
28027;BME280;15344;52.342;-1.290;2023-02-28T10:37:54;102095.07;;;5.82;100.00
28027;BME280;15344;52.342;-1.290;2023-02-28T10:40:27;102093.13;;;6.70;100.00
28027;BME280;15344;52.342;-1.290;2023-02-28T10:42:41;102091.56;;;7.67;100.00
28027;BME280;15344;52.342;-1.290;2023-02-28T10:45:11;102090.89;;;7.13;100.00
28027;BME280;15344;52.342;-1.290;2023-02-28T10:47:34;102086.19;;;6.11;100.00
28027;BME280;15344;52.342;-1.290;2023-02-28T10:49:57;102089.69;;;8.09;100.00
28027;BME280;15344;52.342;-1.290;2023-02-28T10:54:47;102088.24;;;6.67;100.00
28027;BME280;15344;52.342;-1.290;2023-02-28T10:57:19;102088.17;;;6.54;100.00
28027;BME280;15344;52.342;-1.290;2023-02-28T10:59:38;102082.39;;;6.65;100.00
28027;BME280;15344;52.342;-1.290;2023-02-28T11:04:35;102084.21;;;7.77;100.00
28027;BME280;15344;52.342;-1.290;2023-02-28T11:06:59;102083.29;;;8.48;100.00
28027;BME280;15344;52.342;-1.290;2023-02-28T11:09:27;102077.17;;;8.16;100.00
28027;BME280;15344;52.342;-1.290;2023-02-28T11:11:47;102071.56;;;7.90;100.00
28027;BME280;15344;52.342;-1.290;2023-02-28T11:14:20;102068.05;;;7.35;100.00
28027;BME280;15344;52.342;-1.290;2023-02-28T11:16:38;102068.19;;;7.72;100.00
28027;BME280;15344;52.342;-1.290;2023-02-28T11:19:03;102058.92;;;8.90;100.00
28027;BME280;15344;52.342;-1.290;2023-02-28T11:21:30;102056.92;;;8.46;100.00
28027;BME280;15344;52.342;-1.290;2023-02-28T11:23:59;102057.55;;;7.97;100.00
28027;BME280;15344;52.342;-1.290;2023-02-28T11:28:44;102050.05;;;7.92;100.00
28027;BME280;15344;52.342;-1.290;2023-02-28T11:31:15;102049.08;;;7.65;100.00
28027;BME280;15344;52.342;-1.290;2023-02-28T11:33:40;102046.03;;;7.74;100.00
28027;BME280;15344;52.342;-1.290;2023-02-28T11:36:02;102045.74;;;8.35;100.00
28027;BME280;15344;52.342;-1.290;2023-02-28T11:38:26;102044.36;;;8.01;100.00
28027;BME280;15344;52.342;-1.290;2023-02-28T11:41:01;102050.46;;;8.17;100.00
28027;BME280;15344;52.342;-1.290;2023-02-28T11:43:27;102050.27;;;8.41;100.00
28027;BME280;15344;52.342;-1.290;2023-02-28T11:45:49;102052.72;;;8.31;100.00
28027;BME280;15344;52.342;-1.290;2023-02-28T11:48:14;102050.94;;;6.52;100.00
28027;BME280;15344;52.342;-1.290;2023-02-28T11:50:44;102054.10;;;7.72;100.00
28027;BME280;15344;52.342;-1.290;2023-02-28T11:53:01;102048.84;;;7.19;100.00
28027;BME280;15344;52.342;-1.290;2023-02-28T11:55:26;102046.20;;;6.90;100.00
28027;BME280;15344;52.342;-1.290;2023-02-28T11:57:58;102040.57;;;6.72;100.00
28027;BME280;15344;52.342;-1.290;2023-02-28T12:02:49;102042.36;;;7.59;100.00
28027;BME280;15344;52.342;-1.290;2023-02-28T12:05:13;102035.82;;;8.40;100.00
28027;BME280;15344;52.342;-1.290;2023-02-28T12:07:34;102039.37;;;7.44;100.00
28027;BME280;15344;52.342;-1.290;2023-02-28T12:10:01;102041.99;;;7.80;100.00
28027;BME280;15344;52.342;-1.290;2023-02-28T12:12:29;102046.91;;;6.87;100.00
28027;BME280;15344;52.342;-1.290;2023-02-28T12:14:55;102045.64;;;6.89;100.00
28027;BME280;15344;52.342;-1.290;2023-02-28T12:17:22;102038.58;;;6.64;100.00
28027;BME280;15344;52.342;-1.290;2023-02-28T12:19:41;102040.55;;;6.71;100.00
28027;BME280;15344;52.342;-1.290;2023-02-28T12:22:17;102036.60;;;7.19;100.00
28027;BME280;15344;52.342;-1.290;2023-02-28T12:24:39;102030.01;;;6.16;100.00
28027;BME280;15344;52.342;-1.290;2023-02-28T12:26:53;102025.22;;;6.38;100.00
28027;BME280;15344;52.342;-1.290;2023-02-28T12:29:22;102026.83;;;7.12;100.00
28027;BME280;15344;52.342;-1.290;2023-02-28T12:31:47;102025.49;;;6.35;100.00
28027;BME280;15344;52.342;-1.290;2023-02-28T12:34:13;102024.63;;;6.88;100.00
28027;BME280;15344;52.342;-1.290;2023-02-28T12:36:35;102023.36;;;6.93;100.00
28027;BME280;15344;52.342;-1.290;2023-02-28T12:39:03;102015.65;;;7.16;100.00
28027;BME280;15344;52.342;-1.290;2023-02-28T12:41:33;102011.25;;;7.00;100.00
28027;BME280;15344;52.342;-1.290;2023-02-28T12:43:58;102008.24;;;6.64;100.00
28027;BME280;15344;52.342;-1.290;2023-02-28T12:46:21;102007.42;;;6.21;100.00
28027;BME280;15344;52.342;-1.290;2023-02-28T12:48:44;102008.80;;;7.20;100.00
28027;BME280;15344;52.342;-1.290;2023-02-28T12:51:08;102002.73;;;6.69;100.00
28027;BME280;15344;52.342;-1.290;2023-02-28T12:53:42;102001.49;;;6.92;100.00